메인 페이지
METAR-TAF:

METAR-TAF

공항 :

마주로, 마셜 제도

위도: 07-04N, 경도: 171-17E, 고도: 2m

현재 날씨관측

예보는 8 시간 46분 전, 07:55시(UTC)에 발표되었습니다.
4kt
온도 29°C
습도 79%
기압 1011 hPa
시정: 24.1km
고도 1500ft 상공 구름 조금
고도 5000ft 상공 구름 보통
고도 30000ft 상공 구름 많음

METAR: PKMJ 150755Z 18004KT 15SM FEW015 SCT050 BKN300 29/25 A2985 RMK LAST

시각: 04:41 (16:41 UTC)

예보

예보는 5 시간 21분 전, 11:20시(UTC)에 발표되었습니다.
예보 대상 시간: 15일 12시부터 16일 12시까지 (UTC)
8kt
시정: 10km
고도 1500ft 상공 구름 조금
고도 5000ft 상공 구름 보통
고도 13000ft 상공 구름 보통
시계 내 소나기

TAF: PKMJ 151120Z 1512/1612 18008KT P6SM VCSH FEW015 SCT050 SCT130

4,000개 이상의 공항 관측 자료 및 예보 (METAR 및 TAF 보고).

지도상에서 검색 가능한 기상관측소가 노란 점과 빨간 점으로 표시되어 있습니다.

기상관측소 명을 보려면 표시 위로 마우스를 이동하세요.

날씨 관측과 예보를 보려면 클릭하세요.

지도 변경 : 확대하려면 엑스 표시가 있는 녹색 버튼, 축소하려면 빼기 표시가 있는 녹색 버튼, 다음 페이지의 지도를 보려면 녹색 화살표를 클릭하세요.


METAR-TAF: